createdAt,value
2023-01-19T00:00:43.418Z,85.74
2023-01-19T00:04:06.006Z,86.03
2023-01-19T00:07:27.557Z,86.20
2023-01-19T00:10:52.926Z,86.20
2023-01-19T00:14:14.481Z,86.34
2023-01-19T00:17:42.428Z,86.69
2023-01-19T00:21:04.148Z,86.53
2023-01-19T00:24:25.820Z,86.39
2023-01-19T00:27:49.443Z,86.63
2023-01-19T00:31:16.017Z,87.39
2023-01-19T00:34:42.649Z,88.03
2023-01-19T00:38:09.532Z,87.39
2023-01-19T00:41:49.587Z,86.92
2023-01-19T00:45:13.920Z,86.69
2023-01-19T00:48:35.574Z,86.17
2023-01-19T00:51:57.407Z,86.33
2023-01-19T00:55:19.128Z,86.05
2023-01-19T00:58:43.417Z,86.63
2023-01-19T01:02:05.190Z,86.65
2023-01-19T01:05:27.303Z,86.87
2023-01-19T01:08:48.915Z,87.36
2023-01-19T01:12:10.525Z,87.69
2023-01-19T01:15:34.716Z,87.80
2023-01-19T01:18:58.704Z,87.51
2023-01-19T01:22:20.292Z,87.83
2023-01-19T01:25:44.138Z,87.44
2023-01-19T01:29:06.435Z,88.52
2023-01-19T01:32:28.011Z,87.89
2023-01-19T01:35:50.264Z,86.59
2023-01-19T01:39:11.892Z,87.13
2023-01-19T01:42:34.625Z,86.95
2023-01-19T01:45:56.370Z,86.83
2023-01-19T01:49:18.221Z,87.48
2023-01-19T01:53:06.145Z,86.37
2023-01-19T01:56:52.550Z,86.01
2023-01-19T02:00:17.042Z,86.18
2023-01-19T02:03:41.191Z,86.11
2023-01-19T02:07:21.691Z,85.88
2023-01-19T02:11:02.555Z,85.52
2023-01-19T02:14:24.231Z,84.54
2023-01-19T02:17:46.862Z,84.15
2023-01-19T02:21:20.814Z,85.84
2023-01-19T02:24:45.317Z,84.91
2023-01-19T02:28:09.507Z,86.43
2023-01-19T02:31:33.539Z,86.18
2023-01-19T02:34:55.464Z,86.14
2023-01-19T02:38:18.982Z,85.57
2023-01-19T02:41:46.351Z,84.84
2023-01-19T02:45:09.931Z,84.80
2023-01-19T02:48:31.657Z,85.24
2023-01-19T02:51:53.437Z,84.43
2023-01-19T02:55:27.661Z,85.85
2023-01-19T02:59:16.400Z,86.12
2023-01-19T03:03:00.250Z,87.16
2023-01-19T03:06:34.337Z,86.29
2023-01-19T03:10:20.323Z,85.50
2023-01-19T03:13:57.052Z,85.54
2023-01-19T03:17:19.324Z,85.33
2023-01-19T03:20:44.083Z,85.84
2023-01-19T03:24:08.326Z,85.80
2023-01-19T03:27:40.696Z,85.56
2023-01-19T03:31:11.353Z,85.28
2023-01-19T03:34:37.176Z,85.96
2023-01-19T03:38:01.906Z,85.28
2023-01-19T03:41:25.558Z,86.38
2023-01-19T03:44:50.692Z,85.67
2023-01-19T03:48:12.699Z,86.06
2023-01-19T03:51:39.006Z,85.81
2023-01-19T03:55:05.716Z,85.83
2023-01-19T03:58:33.031Z,85.33
2023-01-19T04:01:56.990Z,85.91
2023-01-19T04:05:19.269Z,86.54
2023-01-19T04:08:40.970Z,85.63
2023-01-19T04:12:04.118Z,85.57
2023-01-19T04:15:26.539Z,86.03
2023-01-19T04:18:48.600Z,85.72
2023-01-19T04:22:10.533Z,85.21
2023-01-19T04:25:34.363Z,85.02
2023-01-19T04:28:58.359Z,84.67
2023-01-19T04:32:22.336Z,84.56
2023-01-19T04:35:49.804Z,84.45
2023-01-19T04:39:12.820Z,84.84
2023-01-19T04:42:36.723Z,84.13
2023-01-19T04:46:03.147Z,84.59
2023-01-19T04:49:27.202Z,84.48
2023-01-19T04:52:49.175Z,84.55
2023-01-19T04:56:11.000Z,85.17
2023-01-19T04:59:32.968Z,84.83
2023-01-19T05:02:54.676Z,84.84
2023-01-19T05:06:16.437Z,84.46
2023-01-19T05:09:38.012Z,83.89
2023-01-19T05:13:02.244Z,84.04
2023-01-19T05:16:26.118Z,83.70
2023-01-19T05:19:48.869Z,84.01
2023-01-19T05:23:10.549Z,83.18
2023-01-19T05:26:32.140Z,83.06
2023-01-19T05:29:53.695Z,84.21
2023-01-19T05:33:15.379Z,84.46
2023-01-19T05:36:36.971Z,84.99
2023-01-19T05:40:01.066Z,85.81
2023-01-19T05:43:22.621Z,86.05
2023-01-19T05:46:44.321Z,86.32
2023-01-19T05:50:06.694Z,85.80
2023-01-19T05:53:28.851Z,85.91
2023-01-19T05:56:52.740Z,85.88
2023-01-19T06:00:17.668Z,85.82
2023-01-19T06:03:39.889Z,85.22
2023-01-19T06:07:02.361Z,85.24
2023-01-19T06:10:24.191Z,84.12
2023-01-19T06:13:48.170Z,83.91
2023-01-19T06:17:09.765Z,84.56
2023-01-19T06:20:33.991Z,84.80
2023-01-19T06:23:55.563Z,85.10
2023-01-19T06:27:17.449Z,85.33
2023-01-19T06:30:39.219Z,85.28
2023-01-19T06:34:01.104Z,85.90
2023-01-19T06:37:22.676Z,84.66
2023-01-19T06:40:45.063Z,85.09
2023-01-19T06:44:06.679Z,85.49
2023-01-19T06:47:28.308Z,85.07
2023-01-19T06:50:52.557Z,84.91
2023-01-19T06:54:14.400Z,84.51
2023-01-19T06:57:40.651Z,84.68
2023-01-19T07:01:08.594Z,84.39
2023-01-19T07:04:30.229Z,85.43
2023-01-19T07:07:56.444Z,85.59
2023-01-19T07:11:25.879Z,91.40
2023-01-19T07:14:56.881Z,89.59
2023-01-19T07:18:20.799Z,87.78
2023-01-19T07:21:42.408Z,86.70
2023-01-19T07:25:04.860Z,85.90
2023-01-19T07:28:28.954Z,79.67
2023-01-19T07:31:54.621Z,80.62
2023-01-19T07:35:18.836Z,81.20
2023-01-19T07:38:40.529Z,81.10
2023-01-19T07:42:02.348Z,82.21
2023-01-19T07:45:23.900Z,82.49
2023-01-19T07:48:47.886Z,82.27
2023-01-19T07:52:12.329Z,82.46
2023-01-19T07:55:34.231Z,83.33
2023-01-19T07:58:56.125Z,84.13
2023-01-19T08:02:18.190Z,83.84
2023-01-19T08:05:42.281Z,83.50
2023-01-19T08:09:05.782Z,83.00
2023-01-19T08:12:27.404Z,83.77
2023-01-19T08:15:50.683Z,83.16
2023-01-19T08:19:12.677Z,83.91
2023-01-19T08:22:34.285Z,83.84
2023-01-19T08:26:00.437Z,83.45
2023-01-19T08:29:24.453Z,84.04
2023-01-19T08:32:46.032Z,96.88
2023-01-19T08:36:08.220Z,92.17
2023-01-19T08:39:32.038Z,85.88
2023-01-19T08:42:53.651Z,83.84
2023-01-19T08:46:20.889Z,84.85
2023-01-19T08:49:45.084Z,78.51
2023-01-19T08:53:07.174Z,78.08
2023-01-19T08:56:28.843Z,79.12
2023-01-19T08:59:50.402Z,79.83
2023-01-19T09:03:14.801Z,81.13
2023-01-19T09:06:36.471Z,82.38
2023-01-19T09:09:58.113Z,82.94
2023-01-19T09:13:22.930Z,83.64
2023-01-19T09:16:44.796Z,83.88
2023-01-19T09:20:06.896Z,83.80
2023-01-19T09:23:30.887Z,84.48
2023-01-19T09:26:54.999Z,84.27
2023-01-19T09:30:19.568Z,84.62
2023-01-19T09:33:43.390Z,85.25
2023-01-19T09:37:07.794Z,91.87
2023-01-19T09:40:30.334Z,91.62
2023-01-19T09:43:57.840Z,85.18
2023-01-19T09:47:27.210Z,83.03
2023-01-19T09:50:49.690Z,83.21
2023-01-19T09:54:21.098Z,87.24
2023-01-19T09:57:42.692Z,83.09
2023-01-19T10:01:35.497Z,83.73
2023-01-19T10:05:36.303Z,83.33
2023-01-19T10:09:33.820Z,85.68
2023-01-19T10:13:01.835Z,86.67
2023-01-19T10:16:56.931Z,86.72
2023-01-19T10:20:52.887Z,86.28
2023-01-19T10:24:25.784Z,85.37
2023-01-19T10:27:49.956Z,84.59
2023-01-19T10:31:14.302Z,84.43
2023-01-19T10:34:36.270Z,85.27
2023-01-19T10:38:01.743Z,83.98
2023-01-19T10:41:32.050Z,85.57
2023-01-19T10:44:53.697Z,85.22
2023-01-19T10:48:17.733Z,87.18
2023-01-19T10:51:48.418Z,86.24
2023-01-19T10:55:26.042Z,86.34
2023-01-19T10:58:47.627Z,85.23
2023-01-19T11:02:16.241Z,84.91
2023-01-19T11:05:45.151Z,85.52
2023-01-19T11:09:11.992Z,87.40
2023-01-19T11:12:33.750Z,86.73
2023-01-19T11:16:04.416Z,85.50
2023-01-19T11:19:27.272Z,84.10
2023-01-19T11:23:04.367Z,83.61
2023-01-19T11:26:28.127Z,84.11
2023-01-19T11:30:12.699Z,83.85
2023-01-19T11:33:36.274Z,85.03
2023-01-19T11:37:00.845Z,84.69
2023-01-19T11:40:22.402Z,84.40
2023-01-19T11:43:49.190Z,83.97
2023-01-19T11:47:25.727Z,83.46
2023-01-19T11:50:49.420Z,82.95
2023-01-19T11:54:29.723Z,84.22
2023-01-19T11:57:58.099Z,93.95
2023-01-19T12:01:27.800Z,95.03
2023-01-19T12:04:50.850Z,85.79
2023-01-19T12:08:21.358Z,89.80
2023-01-19T12:12:11.142Z,82.36
2023-01-19T12:15:36.490Z,87.76
2023-01-19T12:19:13.298Z,80.96
2023-01-19T12:22:42.748Z,81.25
2023-01-19T12:26:20.393Z,83.17
2023-01-19T12:29:42.867Z,83.21
2023-01-19T12:33:26.542Z,83.34
2023-01-19T12:36:50.626Z,83.61
2023-01-19T12:40:28.355Z,83.81
2023-01-19T12:44:10.826Z,83.65
2023-01-19T12:47:36.530Z,85.35
2023-01-19T12:50:58.173Z,84.73
2023-01-19T12:54:32.978Z,86.12
2023-01-19T12:58:14.607Z,85.37
2023-01-19T13:01:41.530Z,85.29
2023-01-19T13:05:32.515Z,85.39
2023-01-19T13:08:59.746Z,85.76
2023-01-19T13:12:23.240Z,84.81
2023-01-19T13:15:45.406Z,96.12
2023-01-19T13:19:06.980Z,94.87
2023-01-19T13:23:00.702Z,87.77
2023-01-19T13:26:27.739Z,80.02
2023-01-19T13:29:49.381Z,81.38
2023-01-19T13:33:20.052Z,82.77
2023-01-19T13:36:49.778Z,84.39
2023-01-19T13:40:40.063Z,83.26
2023-01-19T13:44:09.185Z,83.42
2023-01-19T13:47:47.857Z,82.93
2023-01-19T13:51:20.133Z,82.55
2023-01-19T13:54:56.946Z,83.43
2023-01-19T13:58:22.716Z,85.44
2023-01-19T14:01:51.115Z,84.62
2023-01-19T14:05:21.256Z,84.81
2023-01-19T14:08:44.877Z,84.58
2023-01-19T14:12:17.416Z,84.20
2023-01-19T14:15:41.605Z,84.15
2023-01-19T14:19:05.252Z,84.28
2023-01-19T14:22:44.877Z,83.35
2023-01-19T14:26:27.281Z,83.43
2023-01-19T14:29:50.751Z,82.84
2023-01-19T14:33:45.553Z,82.15
2023-01-19T14:37:31.472Z,83.45
2023-01-19T14:40:55.478Z,84.83
2023-01-19T14:44:25.841Z,85.37
2023-01-19T14:47:57.453Z,85.93
2023-01-19T14:51:24.527Z,84.76
2023-01-19T14:54:49.867Z,91.99
2023-01-19T14:58:15.173Z,84.57
2023-01-19T15:01:37.197Z,89.39
2023-01-19T15:04:58.787Z,90.33
2023-01-19T15:08:27.665Z,89.81
2023-01-19T15:11:49.938Z,83.99
2023-01-19T15:15:22.711Z,80.71
2023-01-19T15:18:46.678Z,80.67
2023-01-19T15:22:13.762Z,82.01
2023-01-19T15:25:35.423Z,84.45
2023-01-19T15:28:59.258Z,82.74
2023-01-19T15:32:25.652Z,82.84
2023-01-19T15:35:53.618Z,81.70
2023-01-19T15:39:15.196Z,84.22
2023-01-19T15:42:36.863Z,82.71
2023-01-19T15:46:02.483Z,83.00
2023-01-19T15:49:24.283Z,82.22
2023-01-19T15:52:48.662Z,82.81
2023-01-19T15:56:18.073Z,83.84
2023-01-19T15:59:39.609Z,85.08
2023-01-19T16:03:02.570Z,83.68
2023-01-19T16:06:24.141Z,84.40
2023-01-19T16:09:45.717Z,88.03
2023-01-19T16:13:10.001Z,90.48
2023-01-19T16:16:31.648Z,89.21
2023-01-19T16:19:55.499Z,88.89
2023-01-19T16:23:17.685Z,85.93
2023-01-19T16:26:39.286Z,88.14
2023-01-19T16:30:04.817Z,84.95
2023-01-19T16:33:31.169Z,78.52
2023-01-19T16:36:53.018Z,79.12
2023-01-19T16:40:20.295Z,78.81
2023-01-19T16:43:44.584Z,81.57
2023-01-19T16:47:06.155Z,83.41
2023-01-19T16:50:27.731Z,82.24
2023-01-19T16:53:50.583Z,81.80
2023-01-19T16:57:14.995Z,82.57
2023-01-19T17:00:39.313Z,81.42
2023-01-19T17:04:00.885Z,81.65
2023-01-19T17:07:24.744Z,81.97
2023-01-19T17:10:48.125Z,80.78
2023-01-19T17:14:21.965Z,80.77
2023-01-19T17:17:43.649Z,81.06
2023-01-19T17:21:10.250Z,81.41
2023-01-19T17:24:32.685Z,81.84
2023-01-19T17:27:54.284Z,83.90
2023-01-19T17:31:24.403Z,83.02
2023-01-19T17:34:54.068Z,82.19
2023-01-19T17:38:21.041Z,82.32
2023-01-19T17:41:42.659Z,82.94
2023-01-19T17:45:04.425Z,82.15
2023-01-19T17:48:28.222Z,82.09
2023-01-19T17:51:54.433Z,82.41
2023-01-19T17:55:16.564Z,81.95
2023-01-19T17:58:38.552Z,81.83
2023-01-19T18:02:00.284Z,82.15
2023-01-19T18:05:26.406Z,81.41
2023-01-19T18:08:50.889Z,80.86
2023-01-19T18:12:12.542Z,80.42
2023-01-19T18:15:36.159Z,80.65
2023-01-19T18:18:58.041Z,81.33
2023-01-19T18:22:19.615Z,82.27
2023-01-19T18:25:43.249Z,84.10
2023-01-19T18:29:04.799Z,84.01
2023-01-19T18:32:27.347Z,82.93
2023-01-19T18:35:51.207Z,82.24
2023-01-19T18:39:12.954Z,82.48
2023-01-19T18:42:34.968Z,83.23
2023-01-19T18:45:59.229Z,83.86
2023-01-19T18:49:23.428Z,82.85
2023-01-19T18:52:53.902Z,82.42
2023-01-19T18:56:16.407Z,82.82
2023-01-19T18:59:38.126Z,82.14
2023-01-19T19:03:02.131Z,81.57
2023-01-19T19:06:27.181Z,82.07
2023-01-19T19:09:48.870Z,81.30
2023-01-19T19:13:15.987Z,81.79
2023-01-19T19:16:39.470Z,80.79
2023-01-19T19:20:01.689Z,81.20
2023-01-19T19:23:25.491Z,82.20
2023-01-19T19:26:47.711Z,82.94
2023-01-19T19:30:10.060Z,83.07
2023-01-19T19:33:32.367Z,83.09
2023-01-19T19:36:53.944Z,82.82
2023-01-19T19:40:19.647Z,83.41
2023-01-19T19:43:48.251Z,83.66
2023-01-19T19:47:12.095Z,83.05
2023-01-19T19:50:36.820Z,83.17
2023-01-19T19:54:01.602Z,82.06
2023-01-19T19:57:27.882Z,82.58
2023-01-19T20:00:49.617Z,82.25
2023-01-19T20:04:15.226Z,83.14
2023-01-19T20:07:46.336Z,83.67
2023-01-19T20:11:15.613Z,83.08
2023-01-19T20:14:37.288Z,82.19
2023-01-19T20:18:00.928Z,80.82
2023-01-19T20:21:36.839Z,81.78
2023-01-19T20:24:58.372Z,91.40
2023-01-19T20:28:25.049Z,92.04
2023-01-19T20:31:49.493Z,85.51
2023-01-19T20:35:15.431Z,88.88
2023-01-19T20:38:40.362Z,85.35
2023-01-19T20:42:02.807Z,88.89
2023-01-19T20:45:26.028Z,80.76
2023-01-19T20:48:54.657Z,80.07
2023-01-19T20:52:18.575Z,79.53
2023-01-19T20:55:40.264Z,80.32
2023-01-19T20:59:02.138Z,87.17
2023-01-19T21:02:28.409Z,88.07
2023-01-19T21:05:50.287Z,86.00
2023-01-19T21:09:14.363Z,84.06
2023-01-19T21:12:38.450Z,79.34
2023-01-19T21:16:04.989Z,80.03
2023-01-19T21:19:26.636Z,82.21
2023-01-19T21:22:48.271Z,86.26
2023-01-19T21:26:10.710Z,79.12
2023-01-19T21:29:32.454Z,77.56
2023-01-19T21:32:55.173Z,78.73
2023-01-19T21:36:18.983Z,79.66
2023-01-19T21:39:40.596Z,82.09
2023-01-19T21:43:04.752Z,82.90
2023-01-19T21:46:33.098Z,82.40
2023-01-19T21:49:54.898Z,81.73
2023-01-19T21:53:18.972Z,80.62
2023-01-19T21:56:46.110Z,78.94
2023-01-19T22:00:10.571Z,79.63
2023-01-19T22:03:35.228Z,80.40
2023-01-19T22:06:56.822Z,79.80
2023-01-19T22:10:21.640Z,80.61
2023-01-19T22:13:43.715Z,81.62
2023-01-19T22:17:05.417Z,80.95
2023-01-19T22:20:26.971Z,80.44
2023-01-19T22:23:50.218Z,80.25
2023-01-19T22:27:11.987Z,81.68
2023-01-19T22:30:33.927Z,81.98
2023-01-19T22:33:56.202Z,82.91
2023-01-19T22:37:17.775Z,82.22
2023-01-19T22:40:39.377Z,81.63
2023-01-19T22:44:08.596Z,80.82
2023-01-19T22:47:32.445Z,81.37
2023-01-19T22:50:57.353Z,80.49
2023-01-19T22:54:18.943Z,80.67
2023-01-19T22:57:40.534Z,80.96
2023-01-19T23:01:06.821Z,81.23
2023-01-19T23:04:28.520Z,80.93
2023-01-19T23:07:52.297Z,79.88
2023-01-19T23:11:16.900Z,79.62
2023-01-19T23:14:38.604Z,79.68
2023-01-19T23:18:02.582Z,81.41
2023-01-19T23:21:26.501Z,81.70
2023-01-19T23:24:48.112Z,82.02
2023-01-19T23:28:14.415Z,80.67
2023-01-19T23:31:38.076Z,81.33
2023-01-19T23:35:01.995Z,80.87
2023-01-19T23:38:23.665Z,81.26
2023-01-19T23:41:48.305Z,81.23
2023-01-19T23:45:13.184Z,81.30
2023-01-19T23:48:35.776Z,80.30
2023-01-19T23:51:59.799Z,80.51
2023-01-19T23:55:21.361Z,81.42
2023-01-19T23:58:43.851Z,80.79
